sensor_id;sensor_type;location;lat;lon;timestamp;temperature;humidity
3919;DHT22;1974;48.670;8.994;2024-01-15T00:02:03;-1.60;99.90
3919;DHT22;1974;48.670;8.994;2024-01-15T00:04:31;-1.60;99.90
3919;DHT22;1974;48.670;8.994;2024-01-15T00:06:58;-1.60;99.90
3919;DHT22;1974;48.670;8.994;2024-01-15T00:09:24;-1.60;99.90
3919;DHT22;1974;48.670;8.994;2024-01-15T00:11:53;-1.60;99.90
3919;DHT22;1974;48.670;8.994;2024-01-15T00:14:19;-1.60;99.90
3919;DHT22;1974;48.670;8.994;2024-01-15T00:16:46;-1.60;99.90
3919;DHT22;1974;48.670;8.994;2024-01-15T00:19:16;-1.60;99.90
3919;DHT22;1974;48.670;8.994;2024-01-15T00:21:43;-1.50;99.90
3919;DHT22;1974;48.670;8.994;2024-01-15T00:24:10;-1.50;99.90
3919;DHT22;1974;48.670;8.994;2024-01-15T00:26:37;-1.50;99.90
3919;DHT22;1974;48.670;8.994;2024-01-15T00:29:04;-1.50;99.90
3919;DHT22;1974;48.670;8.994;2024-01-15T00:31:32;-1.50;99.90
3919;DHT22;1974;48.670;8.994;2024-01-15T00:33:59;-1.50;99.90
3919;DHT22;1974;48.670;8.994;2024-01-15T00:36:27;-1.50;99.90
3919;DHT22;1974;48.670;8.994;2024-01-15T00:38:54;-1.60;99.90
3919;DHT22;1974;48.670;8.994;2024-01-15T00:41:21;-1.50;99.90
3919;DHT22;1974;48.670;8.994;2024-01-15T00:43:48;-1.50;99.90
3919;DHT22;1974;48.670;8.994;2024-01-15T00:46:15;-1.50;99.90
3919;DHT22;1974;48.670;8.994;2024-01-15T00:48:42;-1.50;99.90
3919;DHT22;1974;48.670;8.994;2024-01-15T00:51:09;-1.50;99.90
3919;DHT22;1974;48.670;8.994;2024-01-15T00:53:37;-1.60;99.90
3919;DHT22;1974;48.670;8.994;2024-01-15T00:56:04;-1.60;99.90
3919;DHT22;1974;48.670;8.994;2024-01-15T00:58:31;-1.60;99.90
3919;DHT22;1974;48.670;8.994;2024-01-15T01:00:58;-1.50;99.90
3919;DHT22;1974;48.670;8.994;2024-01-15T01:03:24;-1.60;99.90
3919;DHT22;1974;48.670;8.994;2024-01-15T01:05:51;-1.60;99.90
3919;DHT22;1974;48.670;8.994;2024-01-15T01:08:18;-1.60;99.90
3919;DHT22;1974;48.670;8.994;2024-01-15T01:10:46;-1.50;99.90
3919;DHT22;1974;48.670;8.994;2024-01-15T01:13:13;-1.50;99.90
3919;DHT22;1974;48.670;8.994;2024-01-15T01:15:39;-1.40;99.90
3919;DHT22;1974;48.670;8.994;2024-01-15T01:18:07;-1.40;99.90
3919;DHT22;1974;48.670;8.994;2024-01-15T01:20:33;-1.30;99.90
3919;DHT22;1974;48.670;8.994;2024-01-15T01:23:00;-1.40;99.90
3919;DHT22;1974;48.670;8.994;2024-01-15T01:25:27;-1.30;99.90
3919;DHT22;1974;48.670;8.994;2024-01-15T01:27:55;-1.30;99.90
3919;DHT22;1974;48.670;8.994;2024-01-15T01:30:22;-1.30;99.90
3919;DHT22;1974;48.670;8.994;2024-01-15T01:32:48;-1.20;99.90
3919;DHT22;1974;48.670;8.994;2024-01-15T01:35:15;-1.20;99.90
3919;DHT22;1974;48.670;8.994;2024-01-15T01:37:42;-1.20;99.90
3919;DHT22;1974;48.670;8.994;2024-01-15T01:40:09;-1.20;99.90
3919;DHT22;1974;48.670;8.994;2024-01-15T01:42:36;-1.20;99.90
3919;DHT22;1974;48.670;8.994;2024-01-15T01:45:05;-1.20;99.90
3919;DHT22;1974;48.670;8.994;2024-01-15T01:47:32;-1.20;99.90
3919;DHT22;1974;48.670;8.994;2024-01-15T01:49:59;-1.20;99.90
3919;DHT22;1974;48.670;8.994;2024-01-15T01:52:26;-1.20;99.90
3919;DHT22;1974;48.670;8.994;2024-01-15T01:54:53;-1.10;99.90
3919;DHT22;1974;48.670;8.994;2024-01-15T01:57:21;-1.10;99.90
3919;DHT22;1974;48.670;8.994;2024-01-15T01:59:47;-1.20;99.90
3919;DHT22;1974;48.670;8.994;2024-01-15T02:02:16;-1.30;99.90
3919;DHT22;1974;48.670;8.994;2024-01-15T02:04:43;-1.30;99.90
3919;DHT22;1974;48.670;8.994;2024-01-15T02:07:11;-1.40;99.90
3919;DHT22;1974;48.670;8.994;2024-01-15T02:09:37;-1.40;99.90
3919;DHT22;1974;48.670;8.994;2024-01-15T02:12:04;-1.30;99.90
3919;DHT22;1974;48.670;8.994;2024-01-15T02:14:31;-1.30;99.90
3919;DHT22;1974;48.670;8.994;2024-01-15T02:16:58;-1.30;99.90
3919;DHT22;1974;48.670;8.994;2024-01-15T02:19:26;-1.30;99.90
3919;DHT22;1974;48.670;8.994;2024-01-15T02:21:52;-1.30;99.90
3919;DHT22;1974;48.670;8.994;2024-01-15T02:24:21;-1.30;99.90
3919;DHT22;1974;48.670;8.994;2024-01-15T02:26:48;-1.30;99.90
3919;DHT22;1974;48.670;8.994;2024-01-15T02:29:15;-1.30;99.90
3919;DHT22;1974;48.670;8.994;2024-01-15T02:31:42;-1.30;99.90
3919;DHT22;1974;48.670;8.994;2024-01-15T02:34:09;-1.30;99.90
3919;DHT22;1974;48.670;8.994;2024-01-15T02:36:35;-1.40;99.90
3919;DHT22;1974;48.670;8.994;2024-01-15T02:39:02;-1.40;99.90
3919;DHT22;1974;48.670;8.994;2024-01-15T02:41:30;-1.40;99.90
3919;DHT22;1974;48.670;8.994;2024-01-15T02:43:57;-1.50;99.90
3919;DHT22;1974;48.670;8.994;2024-01-15T02:46:24;-1.50;99.90
3919;DHT22;1974;48.670;8.994;2024-01-15T02:48:51;-1.60;99.90
3919;DHT22;1974;48.670;8.994;2024-01-15T02:51:17;-1.60;99.90
3919;DHT22;1974;48.670;8.994;2024-01-15T02:53:44;-1.60;99.90
3919;DHT22;1974;48.670;8.994;2024-01-15T02:56:11;-1.60;99.90
3919;DHT22;1974;48.670;8.994;2024-01-15T02:58:39;-1.50;99.90
3919;DHT22;1974;48.670;8.994;2024-01-15T03:01:06;-1.50;99.90
3919;DHT22;1974;48.670;8.994;2024-01-15T03:03:33;-1.60;99.90
3919;DHT22;1974;48.670;8.994;2024-01-15T03:06:00;-1.60;99.90
3919;DHT22;1974;48.670;8.994;2024-01-15T03:08:27;-1.60;99.90
3919;DHT22;1974;48.670;8.994;2024-01-15T03:10:54;-1.60;99.90
3919;DHT22;1974;48.670;8.994;2024-01-15T03:13:21;-1.60;99.90
3919;DHT22;1974;48.670;8.994;2024-01-15T03:15:49;-1.60;99.90
3919;DHT22;1974;48.670;8.994;2024-01-15T03:18:16;-1.60;99.90
3919;DHT22;1974;48.670;8.994;2024-01-15T03:20:43;-1.50;99.90
3919;DHT22;1974;48.670;8.994;2024-01-15T03:23:09;-1.50;99.90
3919;DHT22;1974;48.670;8.994;2024-01-15T03:25:36;-1.50;99.90
3919;DHT22;1974;48.670;8.994;2024-01-15T03:28:03;-1.40;99.90
3919;DHT22;1974;48.670;8.994;2024-01-15T03:30:30;-1.40;99.90
3919;DHT22;1974;48.670;8.994;2024-01-15T03:32:58;-1.40;99.90
3919;DHT22;1974;48.670;8.994;2024-01-15T03:35:25;-1.40;99.90
3919;DHT22;1974;48.670;8.994;2024-01-15T03:37:54;-1.40;99.90
3919;DHT22;1974;48.670;8.994;2024-01-15T03:40:21;-1.40;99.90
3919;DHT22;1974;48.670;8.994;2024-01-15T03:42:48;-1.30;99.90
3919;DHT22;1974;48.670;8.994;2024-01-15T03:45:15;-1.30;99.90
3919;DHT22;1974;48.670;8.994;2024-01-15T03:47:41;-1.30;99.90
3919;DHT22;1974;48.670;8.994;2024-01-15T03:50:10;-1.20;99.90
3919;DHT22;1974;48.670;8.994;2024-01-15T03:52:36;-1.20;99.90
3919;DHT22;1974;48.670;8.994;2024-01-15T03:57:31;-1.20;99.90
3919;DHT22;1974;48.670;8.994;2024-01-15T03:59:58;-1.20;99.90
3919;DHT22;1974;48.670;8.994;2024-01-15T04:02:24;-1.20;99.90
3919;DHT22;1974;48.670;8.994;2024-01-15T04:04:51;-1.20;99.90
3919;DHT22;1974;48.670;8.994;2024-01-15T04:07:19;-1.20;99.90
3919;DHT22;1974;48.670;8.994;2024-01-15T04:09:46;-1.10;99.90
3919;DHT22;1974;48.670;8.994;2024-01-15T04:12:13;-1.10;99.90
3919;DHT22;1974;48.670;8.994;2024-01-15T04:14:39;-1.10;99.90
3919;DHT22;1974;48.670;8.994;2024-01-15T04:17:06;-1.10;99.90
3919;DHT22;1974;48.670;8.994;2024-01-15T04:19:33;-1.10;99.90
3919;DHT22;1974;48.670;8.994;2024-01-15T04:21:59;-1.10;99.90
3919;DHT22;1974;48.670;8.994;2024-01-15T04:24:28;-1.10;99.90
3919;DHT22;1974;48.670;8.994;2024-01-15T04:26:54;-1.10;99.90
3919;DHT22;1974;48.670;8.994;2024-01-15T04:29:21;-1.10;99.90
3919;DHT22;1974;48.670;8.994;2024-01-15T04:31:48;-1.10;99.90
3919;DHT22;1974;48.670;8.994;2024-01-15T04:34:15;-1.00;99.90
3919;DHT22;1974;48.670;8.994;2024-01-15T04:36:41;-1.00;99.90
3919;DHT22;1974;48.670;8.994;2024-01-15T04:39:08;-0.90;99.90
3919;DHT22;1974;48.670;8.994;2024-01-15T04:41:37;-0.90;99.90
3919;DHT22;1974;48.670;8.994;2024-01-15T04:44:04;-0.90;99.90
3919;DHT22;1974;48.670;8.994;2024-01-15T04:46:31;-0.90;99.90
3919;DHT22;1974;48.670;8.994;2024-01-15T04:48:57;-0.80;99.90
3919;DHT22;1974;48.670;8.994;2024-01-15T04:51:24;-0.90;99.90
3919;DHT22;1974;48.670;8.994;2024-01-15T04:53:51;-0.90;99.90
3919;DHT22;1974;48.670;8.994;2024-01-15T04:56:17;-0.90;99.90
3919;DHT22;1974;48.670;8.994;2024-01-15T04:58:45;-0.90;99.90
3919;DHT22;1974;48.670;8.994;2024-01-15T05:01:12;-0.90;99.90
3919;DHT22;1974;48.670;8.994;2024-01-15T05:03:39;-0.80;99.90
3919;DHT22;1974;48.670;8.994;2024-01-15T05:06:06;-0.80;99.90
3919;DHT22;1974;48.670;8.994;2024-01-15T05:08:33;-0.80;99.90
3919;DHT22;1974;48.670;8.994;2024-01-15T05:11:00;-0.80;99.90
3919;DHT22;1974;48.670;8.994;2024-01-15T05:13:26;-0.80;99.90
3919;DHT22;1974;48.670;8.994;2024-01-15T05:15:55;-0.80;99.90
3919;DHT22;1974;48.670;8.994;2024-01-15T05:18:21;-0.70;99.90
3919;DHT22;1974;48.670;8.994;2024-01-15T05:20:48;-0.70;99.90
3919;DHT22;1974;48.670;8.994;2024-01-15T05:23:15;-0.70;99.90
3919;DHT22;1974;48.670;8.994;2024-01-15T05:25:41;-0.60;99.90
3919;DHT22;1974;48.670;8.994;2024-01-15T05:28:08;-0.70;99.90
3919;DHT22;1974;48.670;8.994;2024-01-15T05:30:35;-0.80;99.90
3919;DHT22;1974;48.670;8.994;2024-01-15T05:33:04;-0.80;99.90
3919;DHT22;1974;48.670;8.994;2024-01-15T05:35:30;-0.70;99.90
3919;DHT22;1974;48.670;8.994;2024-01-15T05:37:57;-0.70;99.90
3919;DHT22;1974;48.670;8.994;2024-01-15T05:40:24;-0.70;99.90
3919;DHT22;1974;48.670;8.994;2024-01-15T05:42:51;-0.80;99.90
3919;DHT22;1974;48.670;8.994;2024-01-15T05:45:17;-0.80;99.90
3919;DHT22;1974;48.670;8.994;2024-01-15T05:47:44;-0.80;99.90
3919;DHT22;1974;48.670;8.994;2024-01-15T05:50:12;-0.90;99.90
3919;DHT22;1974;48.670;8.994;2024-01-15T05:52:39;-0.90;99.90
3919;DHT22;1974;48.670;8.994;2024-01-15T05:55:06;-0.90;99.90
3919;DHT22;1974;48.670;8.994;2024-01-15T05:57:33;-1.00;99.90
3919;DHT22;1974;48.670;8.994;2024-01-15T06:00:00;-0.90;99.90
3919;DHT22;1974;48.670;8.994;2024-01-15T06:02:26;-0.90;99.90
3919;DHT22;1974;48.670;8.994;2024-01-15T06:04:53;-0.90;99.90
3919;DHT22;1974;48.670;8.994;2024-01-15T06:07:22;-0.80;99.90
3919;DHT22;1974;48.670;8.994;2024-01-15T06:09:49;-0.90;99.90
3919;DHT22;1974;48.670;8.994;2024-01-15T06:12:16;-0.80;99.90
3919;DHT22;1974;48.670;8.994;2024-01-15T06:14:42;-0.90;99.90
3919;DHT22;1974;48.670;8.994;2024-01-15T06:17:09;-0.90;99.90
3919;DHT22;1974;48.670;8.994;2024-01-15T06:19:36;-0.90;99.90
3919;DHT22;1974;48.670;8.994;2024-01-15T06:22:03;-0.90;99.90
3919;DHT22;1974;48.670;8.994;2024-01-15T06:24:31;-0.90;99.90
3919;DHT22;1974;48.670;8.994;2024-01-15T06:26:58;-0.90;99.90
3919;DHT22;1974;48.670;8.994;2024-01-15T06:29:26;-0.90;99.90
3919;DHT22;1974;48.670;8.994;2024-01-15T06:31:52;-0.90;99.90
3919;DHT22;1974;48.670;8.994;2024-01-15T06:34:19;-1.00;99.90
3919;DHT22;1974;48.670;8.994;2024-01-15T06:36:46;-1.00;99.90
3919;DHT22;1974;48.670;8.994;2024-01-15T06:39:13;-1.00;99.90
3919;DHT22;1974;48.670;8.994;2024-01-15T06:41:41;-1.00;99.90
3919;DHT22;1974;48.670;8.994;2024-01-15T06:44:10;-1.00;99.90
3919;DHT22;1974;48.670;8.994;2024-01-15T06:46:38;-1.00;99.90
3919;DHT22;1974;48.670;8.994;2024-01-15T06:49:08;-1.00;99.90
3919;DHT22;1974;48.670;8.994;2024-01-15T06:51:35;-1.00;99.90
3919;DHT22;1974;48.670;8.994;2024-01-15T06:54:02;-0.90;99.90
3919;DHT22;1974;48.670;8.994;2024-01-15T06:56:29;-0.90;99.90
3919;DHT22;1974;48.670;8.994;2024-01-15T06:58:57;-0.90;99.90
3919;DHT22;1974;48.670;8.994;2024-01-15T07:01:23;-0.90;99.90
3919;DHT22;1974;48.670;8.994;2024-01-15T07:03:50;-0.80;99.90
3919;DHT22;1974;48.670;8.994;2024-01-15T07:06:17;-0.90;99.90
3919;DHT22;1974;48.670;8.994;2024-01-15T07:08:44;-0.90;99.90
3919;DHT22;1974;48.670;8.994;2024-01-15T07:11:10;-0.90;99.90
3919;DHT22;1974;48.670;8.994;2024-01-15T07:13:37;-0.90;99.90
3919;DHT22;1974;48.670;8.994;2024-01-15T07:16:06;-1.00;99.90
3919;DHT22;1974;48.670;8.994;2024-01-15T07:18:32;-1.00;99.90
3919;DHT22;1974;48.670;8.994;2024-01-15T07:20:59;-0.90;99.90
3919;DHT22;1974;48.670;8.994;2024-01-15T07:23:27;-1.00;99.90
3919;DHT22;1974;48.670;8.994;2024-01-15T07:25:53;-0.90;99.90
3919;DHT22;1974;48.670;8.994;2024-01-15T07:28:20;-1.00;99.90
3919;DHT22;1974;48.670;8.994;2024-01-15T07:30:47;-1.00;99.90
3919;DHT22;1974;48.670;8.994;2024-01-15T07:33:15;-1.00;99.90
3919;DHT22;1974;48.670;8.994;2024-01-15T07:35:42;-0.90;99.90
3919;DHT22;1974;48.670;8.994;2024-01-15T07:38:08;-0.90;99.90
3919;DHT22;1974;48.670;8.994;2024-01-15T07:40:37;-0.90;99.90
3919;DHT22;1974;48.670;8.994;2024-01-15T07:43:04;-0.80;99.90
3919;DHT22;1974;48.670;8.994;2024-01-15T07:45:30;-0.80;99.90
3919;DHT22;1974;48.670;8.994;2024-01-15T07:47:57;-0.80;99.90
3919;DHT22;1974;48.670;8.994;2024-01-15T07:50:25;-0.80;99.90
3919;DHT22;1974;48.670;8.994;2024-01-15T07:52:52;-0.70;99.90
3919;DHT22;1974;48.670;8.994;2024-01-15T07:55:19;-0.70;99.90
3919;DHT22;1974;48.670;8.994;2024-01-15T07:57:46;-0.70;99.90
3919;DHT22;1974;48.670;8.994;2024-01-15T08:00:13;-0.70;99.90
3919;DHT22;1974;48.670;8.994;2024-01-15T08:02:40;-0.60;99.90
3919;DHT22;1974;48.670;8.994;2024-01-15T08:05:07;-0.60;99.90
3919;DHT22;1974;48.670;8.994;2024-01-15T08:07:35;-0.50;99.90
3919;DHT22;1974;48.670;8.994;2024-01-15T08:10:04;-0.50;99.90
3919;DHT22;1974;48.670;8.994;2024-01-15T08:12:31;-0.50;99.90
3919;DHT22;1974;48.670;8.994;2024-01-15T08:14:58;-0.50;99.90
3919;DHT22;1974;48.670;8.994;2024-01-15T08:17:25;-0.40;99.90
3919;DHT22;1974;48.670;8.994;2024-01-15T08:19:53;-0.40;99.90
3919;DHT22;1974;48.670;8.994;2024-01-15T08:22:20;-0.30;99.90
3919;DHT22;1974;48.670;8.994;2024-01-15T08:24:48;-0.30;99.90
3919;DHT22;1974;48.670;8.994;2024-01-15T08:27:15;-0.20;99.90
3919;DHT22;1974;48.670;8.994;2024-01-15T08:29:42;-0.20;99.90
3919;DHT22;1974;48.670;8.994;2024-01-15T08:32:09;-0.20;99.90
3919;DHT22;1974;48.670;8.994;2024-01-15T08:34:39;-0.10;99.90
3919;DHT22;1974;48.670;8.994;2024-01-15T08:37:06;-0.10;99.90
3919;DHT22;1974;48.670;8.994;2024-01-15T08:39:32;-0.10;99.90
3919;DHT22;1974;48.670;8.994;2024-01-15T08:42:00;0.00;99.90
3919;DHT22;1974;48.670;8.994;2024-01-15T08:44:27;0.10;99.90
3919;DHT22;1974;48.670;8.994;2024-01-15T08:46:54;1.00;99.90
3919;DHT22;1974;48.670;8.994;2024-01-15T08:49:20;0.20;99.90
3919;DHT22;1974;48.670;8.994;2024-01-15T08:51:47;0.20;99.90
3919;DHT22;1974;48.670;8.994;2024-01-15T08:54:14;0.30;99.90
3919;DHT22;1974;48.670;8.994;2024-01-15T08:56:41;0.30;99.90
3919;DHT22;1974;48.670;8.994;2024-01-15T08:59:09;0.40;99.90
3919;DHT22;1974;48.670;8.994;2024-01-15T09:01:38;0.50;99.90
3919;DHT22;1974;48.670;8.994;2024-01-15T09:04:05;0.50;99.90
3919;DHT22;1974;48.670;8.994;2024-01-15T09:06:32;0.50;99.90
3919;DHT22;1974;48.670;8.994;2024-01-15T09:08:58;0.50;99.90
3919;DHT22;1974;48.670;8.994;2024-01-15T09:11:25;0.50;99.90
3919;DHT22;1974;48.670;8.994;2024-01-15T09:13:52;0.50;99.90
3919;DHT22;1974;48.670;8.994;2024-01-15T09:16:20;0.50;99.90
3919;DHT22;1974;48.670;8.994;2024-01-15T09:18:47;0.60;99.90
3919;DHT22;1974;48.670;8.994;2024-01-15T09:21:13;0.60;99.90
3919;DHT22;1974;48.670;8.994;2024-01-15T09:23:40;0.70;99.90
3919;DHT22;1974;48.670;8.994;2024-01-15T09:26:08;0.60;99.90
3919;DHT22;1974;48.670;8.994;2024-01-15T09:28:35;0.70;99.90
3919;DHT22;1974;48.670;8.994;2024-01-15T09:31:02;0.70;99.90
3919;DHT22;1974;48.670;8.994;2024-01-15T09:33:30;0.70;99.90
3919;DHT22;1974;48.670;8.994;2024-01-15T09:35:56;0.70;99.90
3919;DHT22;1974;48.670;8.994;2024-01-15T09:38:23;0.80;99.90
3919;DHT22;1974;48.670;8.994;2024-01-15T09:40:50;0.70;99.90
3919;DHT22;1974;48.670;8.994;2024-01-15T09:43:18;0.80;99.90
3919;DHT22;1974;48.670;8.994;2024-01-15T09:45:45;0.90;99.90
3919;DHT22;1974;48.670;8.994;2024-01-15T09:48:12;0.90;99.90
3919;DHT22;1974;48.670;8.994;2024-01-15T09:50:41;0.80;99.90
3919;DHT22;1974;48.670;8.994;2024-01-15T09:53:09;1.00;99.90
3919;DHT22;1974;48.670;8.994;2024-01-15T09:55:36;0.90;99.90
3919;DHT22;1974;48.670;8.994;2024-01-15T09:58:04;1.00;99.90
3919;DHT22;1974;48.670;8.994;2024-01-15T10:00:33;1.10;99.90
3919;DHT22;1974;48.670;8.994;2024-01-15T10:03:03;1.10;99.90
3919;DHT22;1974;48.670;8.994;2024-01-15T10:05:30;1.10;99.90
3919;DHT22;1974;48.670;8.994;2024-01-15T10:07:58;1.10;99.90
3919;DHT22;1974;48.670;8.994;2024-01-15T10:10:27;1.20;99.90
3919;DHT22;1974;48.670;8.994;2024-01-15T10:12:54;1.10;99.90
3919;DHT22;1974;48.670;8.994;2024-01-15T10:15:22;1.10;99.90
3919;DHT22;1974;48.670;8.994;2024-01-15T10:17:49;1.10;99.90
3919;DHT22;1974;48.670;8.994;2024-01-15T10:20:16;1.10;99.90
3919;DHT22;1974;48.670;8.994;2024-01-15T10:22:45;1.10;99.90
3919;DHT22;1974;48.670;8.994;2024-01-15T10:25:13;1.10;99.90
3919;DHT22;1974;48.670;8.994;2024-01-15T10:27:40;1.00;99.90
3919;DHT22;1974;48.670;8.994;2024-01-15T10:30:08;1.00;99.90
3919;DHT22;1974;48.670;8.994;2024-01-15T10:32:35;1.00;99.90
3919;DHT22;1974;48.670;8.994;2024-01-15T10:35:02;1.10;99.90
3919;DHT22;1974;48.670;8.994;2024-01-15T10:37:32;1.00;99.90
3919;DHT22;1974;48.670;8.994;2024-01-15T10:40:01;1.10;99.90
3919;DHT22;1974;48.670;8.994;2024-01-15T10:42:30;1.10;99.90
3919;DHT22;1974;48.670;8.994;2024-01-15T10:44:57;1.10;99.90
3919;DHT22;1974;48.670;8.994;2024-01-15T10:47:24;1.20;99.90
3919;DHT22;1974;48.670;8.994;2024-01-15T10:49:51;1.30;99.90
3919;DHT22;1974;48.670;8.994;2024-01-15T10:52:18;1.30;99.90
3919;DHT22;1974;48.670;8.994;2024-01-15T10:54:45;1.40;99.90
3919;DHT22;1974;48.670;8.994;2024-01-15T10:57:13;1.40;99.90
3919;DHT22;1974;48.670;8.994;2024-01-15T10:59:42;1.40;99.90
3919;DHT22;1974;48.670;8.994;2024-01-15T11:02:09;1.30;99.90
3919;DHT22;1974;48.670;8.994;2024-01-15T11:04:36;1.20;99.90
3919;DHT22;1974;48.670;8.994;2024-01-15T11:07:05;1.20;99.90
3919;DHT22;1974;48.670;8.994;2024-01-15T11:09:32;1.30;99.90
3919;DHT22;1974;48.670;8.994;2024-01-15T11:12:08;1.30;99.90
3919;DHT22;1974;48.670;8.994;2024-01-15T11:14:38;1.20;99.90
3919;DHT22;1974;48.670;8.994;2024-01-15T11:17:07;1.10;99.90
3919;DHT22;1974;48.670;8.994;2024-01-15T11:19:38;1.00;99.90
3919;DHT22;1974;48.670;8.994;2024-01-15T11:22:10;1.00;99.90
3919;DHT22;1974;48.670;8.994;2024-01-15T11:24:38;1.00;99.90
3919;DHT22;1974;48.670;8.994;2024-01-15T11:27:05;1.00;99.90
3919;DHT22;1974;48.670;8.994;2024-01-15T11:29:34;1.00;99.90
3919;DHT22;1974;48.670;8.994;2024-01-15T11:32:07;1.00;99.90
3919;DHT22;1974;48.670;8.994;2024-01-15T11:34:53;1.00;99.90
3919;DHT22;1974;48.670;8.994;2024-01-15T11:37:20;1.00;99.90
3919;DHT22;1974;48.670;8.994;2024-01-15T11:39:51;1.10;99.90
3919;DHT22;1974;48.670;8.994;2024-01-15T11:42:20;1.10;99.90
3919;DHT22;1974;48.670;8.994;2024-01-15T11:44:47;1.10;99.90
3919;DHT22;1974;48.670;8.994;2024-01-15T11:47:15;1.10;99.90
3919;DHT22;1974;48.670;8.994;2024-01-15T11:50:01;1.00;99.90
3919;DHT22;1974;48.670;8.994;2024-01-15T11:52:33;1.10;99.90
3919;DHT22;1974;48.670;8.994;2024-01-15T11:55:11;1.10;99.90
3919;DHT22;1974;48.670;8.994;2024-01-15T11:57:41;1.20;99.90
3919;DHT22;1974;48.670;8.994;2024-01-15T12:00:10;1.20;99.90
3919;DHT22;1974;48.670;8.994;2024-01-15T12:02:39;1.20;99.90
3919;DHT22;1974;48.670;8.994;2024-01-15T12:05:07;1.20;99.90
3919;DHT22;1974;48.670;8.994;2024-01-15T12:07:34;1.10;99.90
3919;DHT22;1974;48.670;8.994;2024-01-15T12:10:01;1.10;99.90
3919;DHT22;1974;48.670;8.994;2024-01-15T12:12:36;1.00;99.90
3919;DHT22;1974;48.670;8.994;2024-01-15T12:15:04;0.90;99.90
3919;DHT22;1974;48.670;8.994;2024-01-15T12:17:31;0.90;99.90
3919;DHT22;1974;48.670;8.994;2024-01-15T12:19:59;0.80;99.90
3919;DHT22;1974;48.670;8.994;2024-01-15T12:22:26;0.80;99.90
3919;DHT22;1974;48.670;8.994;2024-01-15T12:24:53;0.70;99.90
3919;DHT22;1974;48.670;8.994;2024-01-15T12:27:20;0.60;99.90
3919;DHT22;1974;48.670;8.994;2024-01-15T12:29:47;0.60;99.90
3919;DHT22;1974;48.670;8.994;2024-01-15T12:32:14;0.60;99.90
3919;DHT22;1974;48.670;8.994;2024-01-15T12:34:41;0.60;99.90
3919;DHT22;1974;48.670;8.994;2024-01-15T12:37:09;0.70;99.90
3919;DHT22;1974;48.670;8.994;2024-01-15T12:39:37;0.70;99.90
3919;DHT22;1974;48.670;8.994;2024-01-15T12:42:04;0.70;99.90
3919;DHT22;1974;48.670;8.994;2024-01-15T12:44:32;0.60;99.90
3919;DHT22;1974;48.670;8.994;2024-01-15T12:46:58;0.60;99.90
3919;DHT22;1974;48.670;8.994;2024-01-15T12:49:26;0.50;99.90
3919;DHT22;1974;48.670;8.994;2024-01-15T12:51:53;1.70;99.90
3919;DHT22;1974;48.670;8.994;2024-01-15T12:54:22;0.50;99.90
3919;DHT22;1974;48.670;8.994;2024-01-15T12:56:50;0.40;99.90
3919;DHT22;1974;48.670;8.994;2024-01-15T12:59:16;0.40;99.90
3919;DHT22;1974;48.670;8.994;2024-01-15T13:01:44;0.40;99.90
3919;DHT22;1974;48.670;8.994;2024-01-15T13:04:11;0.40;99.90
3919;DHT22;1974;48.670;8.994;2024-01-15T13:06:38;0.50;99.90
3919;DHT22;1974;48.670;8.994;2024-01-15T13:09:04;0.40;99.90
3919;DHT22;1974;48.670;8.994;2024-01-15T13:11:34;0.40;99.90
3919;DHT22;1974;48.670;8.994;2024-01-15T13:14:01;0.50;99.90
3919;DHT22;1974;48.670;8.994;2024-01-15T13:16:30;0.50;99.90
3919;DHT22;1974;48.670;8.994;2024-01-15T13:18:57;0.50;99.90
3919;DHT22;1974;48.670;8.994;2024-01-15T13:21:24;0.60;99.90
3919;DHT22;1974;48.670;8.994;2024-01-15T13:23:51;0.50;99.90
3919;DHT22;1974;48.670;8.994;2024-01-15T13:26:17;0.40;99.90
3919;DHT22;1974;48.670;8.994;2024-01-15T13:28:47;0.50;99.90
3919;DHT22;1974;48.670;8.994;2024-01-15T13:31:14;0.50;99.90
3919;DHT22;1974;48.670;8.994;2024-01-15T13:33:41;0.40;99.90
3919;DHT22;1974;48.670;8.994;2024-01-15T13:36:08;0.40;99.90
3919;DHT22;1974;48.670;8.994;2024-01-15T13:38:36;0.40;99.90
3919;DHT22;1974;48.670;8.994;2024-01-15T13:41:04;0.40;99.90
3919;DHT22;1974;48.670;8.994;2024-01-15T13:43:31;0.40;99.90
3919;DHT22;1974;48.670;8.994;2024-01-15T13:45:59;0.40;99.90
3919;DHT22;1974;48.670;8.994;2024-01-15T13:48:30;0.40;99.90
3919;DHT22;1974;48.670;8.994;2024-01-15T13:50:57;0.40;99.90
3919;DHT22;1974;48.670;8.994;2024-01-15T13:53:24;0.30;99.90
3919;DHT22;1974;48.670;8.994;2024-01-15T13:55:51;0.30;99.90
3919;DHT22;1974;48.670;8.994;2024-01-15T13:58:18;0.30;99.90
3919;DHT22;1974;48.670;8.994;2024-01-15T14:00:47;0.30;99.90
3919;DHT22;1974;48.670;8.994;2024-01-15T14:03:15;0.30;99.90
3919;DHT22;1974;48.670;8.994;2024-01-15T14:05:42;0.20;99.90
3919;DHT22;1974;48.670;8.994;2024-01-15T14:08:08;0.20;99.90
3919;DHT22;1974;48.670;8.994;2024-01-15T14:10:35;0.20;99.90
3919;DHT22;1974;48.670;8.994;2024-01-15T14:13:03;0.30;99.90
3919;DHT22;1974;48.670;8.994;2024-01-15T14:15:30;0.30;99.90
3919;DHT22;1974;48.670;8.994;2024-01-15T14:17:56;0.30;99.90
3919;DHT22;1974;48.670;8.994;2024-01-15T14:20:25;0.30;99.90
3919;DHT22;1974;48.670;8.994;2024-01-15T14:22:51;0.30;99.90
3919;DHT22;1974;48.670;8.994;2024-01-15T14:25:18;0.30;99.90
3919;DHT22;1974;48.670;8.994;2024-01-15T14:27:45;0.30;99.90
3919;DHT22;1974;48.670;8.994;2024-01-15T14:30:13;0.30;99.90
3919;DHT22;1974;48.670;8.994;2024-01-15T14:32:41;0.30;99.90
3919;DHT22;1974;48.670;8.994;2024-01-15T14:35:08;0.30;99.90
3919;DHT22;1974;48.670;8.994;2024-01-15T14:37:38;0.30;99.90
3919;DHT22;1974;48.670;8.994;2024-01-15T14:40:05;0.30;99.90
3919;DHT22;1974;48.670;8.994;2024-01-15T14:42:35;0.30;99.90
3919;DHT22;1974;48.670;8.994;2024-01-15T14:45:02;0.30;99.90
3919;DHT22;1974;48.670;8.994;2024-01-15T14:47:30;0.30;99.90
3919;DHT22;1974;48.670;8.994;2024-01-15T14:49:57;0.30;99.90
3919;DHT22;1974;48.670;8.994;2024-01-15T14:52:24;0.30;99.90
3919;DHT22;1974;48.670;8.994;2024-01-15T14:54:52;0.40;99.90
3919;DHT22;1974;48.670;8.994;2024-01-15T14:57:19;0.30;99.90
3919;DHT22;1974;48.670;8.994;2024-01-15T14:59:45;0.30;99.90
3919;DHT22;1974;48.670;8.994;2024-01-15T15:02:12;0.30;99.90
3919;DHT22;1974;48.670;8.994;2024-01-15T15:04:40;0.30;99.90
3919;DHT22;1974;48.670;8.994;2024-01-15T15:07:08;0.30;99.90
3919;DHT22;1974;48.670;8.994;2024-01-15T15:09:35;0.30;99.90
3919;DHT22;1974;48.670;8.994;2024-01-15T15:12:04;0.20;99.90
3919;DHT22;1974;48.670;8.994;2024-01-15T15:14:32;0.20;99.90
3919;DHT22;1974;48.670;8.994;2024-01-15T15:17:03;0.20;99.90
3919;DHT22;1974;48.670;8.994;2024-01-15T15:19:30;0.20;99.90
3919;DHT22;1974;48.670;8.994;2024-01-15T15:21:57;0.20;99.90
3919;DHT22;1974;48.670;8.994;2024-01-15T15:24:25;0.20;99.90
3919;DHT22;1974;48.670;8.994;2024-01-15T15:26:52;0.20;99.90
3919;DHT22;1974;48.670;8.994;2024-01-15T15:29:20;0.10;99.90
3919;DHT22;1974;48.670;8.994;2024-01-15T15:31:49;0.10;99.90
3919;DHT22;1974;48.670;8.994;2024-01-15T15:34:16;0.10;99.90
3919;DHT22;1974;48.670;8.994;2024-01-15T15:36:42;0.10;99.90
3919;DHT22;1974;48.670;8.994;2024-01-15T15:39:09;0.10;99.90
3919;DHT22;1974;48.670;8.994;2024-01-15T15:41:36;0.10;99.90
3919;DHT22;1974;48.670;8.994;2024-01-15T15:44:03;0.20;99.90
3919;DHT22;1974;48.670;8.994;2024-01-15T15:46:31;0.10;99.90
3919;DHT22;1974;48.670;8.994;2024-01-15T15:48:58;0.00;99.90
3919;DHT22;1974;48.670;8.994;2024-01-15T15:51:26;0.00;99.90
3919;DHT22;1974;48.670;8.994;2024-01-15T15:53:53;0.00;99.90
3919;DHT22;1974;48.670;8.994;2024-01-15T15:56:20;0.00;99.90
3919;DHT22;1974;48.670;8.994;2024-01-15T15:58:46;0.00;99.90
3919;DHT22;1974;48.670;8.994;2024-01-15T16:01:13;0.00;99.90
3919;DHT22;1974;48.670;8.994;2024-01-15T16:03:41;0.00;99.90
3919;DHT22;1974;48.670;8.994;2024-01-15T16:06:08;-0.10;99.90
3919;DHT22;1974;48.670;8.994;2024-01-15T16:08:35;-0.10;99.90
3919;DHT22;1974;48.670;8.994;2024-01-15T16:11:01;-0.20;99.90
3919;DHT22;1974;48.670;8.994;2024-01-15T16:13:29;-0.20;99.90